Metar Cercanos

 

LEPA - Palma De Mallorc, Spain
Distance from station: ONO 38km
Actualización: 16/10/2018 23:30
Parcialmente nuboso
Parcialmente nuboso
 Viento del ESE
Viento: ESE 2 km/h
Temperatura: 17°C
Rocío: 16°C
Humedad: 94%
Barómetro: 1016 hPa
Clouds: Parcialmente nuboso
Visibility: 10 km
Cloud details: Few Clouds 610 m
Parcialmente nuboso 1067 m
2018/10/16 21:30 LEPA 162130Z 12001KT 9999 FEW020 SCT035 17/16 Q1016 NOSIG
LEMH - Mahon/Menorca Is, Spain
Distance from station: ENE 105km
Actualización: 16/10/2018 23:30
Despejado
Despejado
 Viento del NE
Viento: NE 6 km/h
Temperatura: 17°C
Rocío: 13°C
Humedad: 77%
Barómetro: 1016 hPa
Resumen: Despejado
Visibility: greater than 10 km
2018/10/16 21:30 LEMH 162130Z 04003KT CAVOK 17/13 Q1016
 
LEIB - Ibiza/Es Codola, Spain
Distance from station: OSO 165km
Actualización: 16/10/2018 23:30
Few Clouds
Few Clouds
 Viento del NNO
Viento: NNO 2 km/h
Temperatura: 17°C
Rocío: 14°C
Humedad: 83%
Barómetro: 1016 hPa
Clouds: Few Clouds
Visibility: 10 km
Cloud details: Few Clouds 914 m
2018/10/16 21:30 LEIB 162130Z 34001KT 9999 FEW030TCU 17/14 Q1016 NOSIG
LEBL - Barcelona Airpor, Spain
Distance from station: NNO 225km
Actualización: 16/10/2018 23:30
Few Clouds
Few Clouds
 Viento del NNO
Viento: NNO 9 km/h
Temperatura: 18°C
Rocío: 15°C
Humedad: 83%
Barómetro: 1017 hPa
Clouds: Few Clouds
Visibility: 10 km
Cloud details: Few Clouds 762 m
2018/10/16 21:30 LEBL 162130Z 33005KT 9999 FEW025 18/15 Q1017 NOSIG
 
LEVC - Valencia (civ/Mi, Spain
Distance from station: NO 188km
Actualización: 16/10/2018 23:30
Few Clouds
Few Clouds
 Viento del NNO
Viento: NNO 11 km/h
Temperatura: 20°C
Rocío: 14°C
Humedad: 69%
Barómetro: 1017 hPa
Clouds: Few Clouds
Visibility: 10 km
Cloud details: Few Clouds 762 m
2018/10/16 21:30 LEVC 162130Z 34006KT 9999 FEW025 20/14 Q1017 NOSIG
LEGE - Gerona/Costa Bra, Spain
Distance from station: N 276km
Actualización: 16/10/2018 23:30
Parcialmente nuboso
Parcialmente nuboso
 Viento del varies
Viento: varies 4 km/h
Temperatura: 16°C
Rocío: 16°C
Humedad: 100%
Barómetro: 1018 hPa
Clouds: Parcialmente nuboso
Visibility: 10 km
Cloud details: Few Clouds 396 m
Parcialmente nuboso 914 m
2018/10/16 21:30 LEGE 162130Z VRB02KT 9999 FEW013TCU SCT030 16/16 Q1018
 
LEAL - Alicante/El Alte, Spain
Distance from station: OSO 344km
Actualización: 16/10/2018 23:30
Few Clouds
Few Clouds
 Viento del N
Viento: N 11 km/h
Temperatura: 19°C
Rocío: 13°C
Humedad: 68%
Barómetro: 1016 hPa
Clouds: Few Clouds
Visibility: 10 km
Cloud details: Few Clouds 549 m
2018/10/16 21:30 LEAL 162130Z 01006KT 330V100 9999 FEW018TCU 19/13 Q1016 TEMPO 4000 SHRA FEW030CB
LEAM - Almeria Airport, Spain
Distance from station: SSO 56km
Actualización: 16/10/2018 23:30

 Viento del N
Viento: N 9 km/h
Temperatura: 18°C
Rocío: 14°C
Humedad: 78%
Barómetro: 1016 hPa
Visibility: 10 km
2018/10/16 21:30 LEAM 162130Z AUTO 01005KT 9999 ////// 18/14 Q1016
 
LEZG - Zaragoza (mil/Ci, Spain
Distance from station: NO 431km
Actualización: 16/10/2018 23:30
Despejado
Despejado
 Viento del OSO
Viento: OSO 2 km/h
Temperatura: 14°C
Rocío: 9°C
Humedad: 72%
Barómetro: 1018 hPa
Resumen: Despejado
Visibility: greater than 10 km
2018/10/16 21:30 LEZG 162130Z 24001KT CAVOK 14/09 Q1018
LEMD - Madrid/Barajas, Spain
Distance from station: ONO 234km
Actualización: 16/10/2018 23:30
Few Clouds
Few Clouds
 Viento del NO
Viento: NO 9 km/h
Temperatura: 14°C
Rocío: 10°C
Humedad: 77%
Barómetro: 1018 hPa
Clouds: Few Clouds
Visibility: 10 km
Cloud details: Few Clouds 1768 m
2018/10/16 21:30 LEMD 162130Z 31005KT 9999 FEW058 14/10 Q1018 NOSIG
 
LEGR - Granada Airport, Spain
Distance from station: OSO 62km
Actualización: 16/10/2018 23:30
Despejado
Despejado
 Viento del OSO
Viento: OSO 2 km/h
Temperatura: 13°C
Rocío: 12°C
Humedad: 94%
Barómetro: 1018 hPa
Clouds: Despejado
Visibility: 10 km
2018/10/16 21:30 LEGR 162130Z AUTO 24001KT 9999 NCD 13/12 Q1018
LEMG - Malaga (civ/Mil), Spain
Distance from station: OSO 227km
Actualización: 16/10/2018 23:30
Parcialmente nuboso
Parcialmente nuboso
 Viento del calm
Viento: Calma
Temperatura: 20°C
Rocío: 16°C
Humedad: 78%
Barómetro: 1016 hPa
Clouds: Parcialmente nuboso
Visibility: 10 km
Cloud details: Few Clouds 610 m
Parcialmente nuboso 1128 m
2018/10/16 21:30 LEMG 162130Z 00000KT 9999 FEW020 SCT037 20/16 Q1016 NOSIG
 
LEZL - Sevilla (civ/Mil, Spain
Distance from station: S 318km
Actualización: 16/10/2018 23:30
Despejado
Despejado
 Viento del varies
Viento: varies 4 km/h
Temperatura: 19°C
Rocío: 15°C
Humedad: 78%
Barómetro: 1016 hPa
Resumen: Despejado
Visibility: greater than 10 km
2018/10/16 21:30 LEZL 162130Z VRB02KT CAVOK 19/15 Q1016 NOSIG
LEVT - Vitoria, Spain
Distance from station: NO 226km
Actualización: 16/10/2018 23:30
Parcialmente nuboso
Parcialmente nuboso
 Viento del calm
Viento: Calma
Temperatura: 9°C
Rocío: 9°C
Humedad: 100%
Barómetro: 1020 hPa
Clouds: Parcialmente nuboso
Visibility: 10 km
Cloud details: Parcialmente nuboso 762 m
2018/10/16 21:30 LEVT 162130Z 00000KT 9999 SCT025 09/09 Q1020
 
LEBB - Bilbao/Sondica, Spain
Distance from station: NNO 235km
Actualización: 16/10/2018 23:30
Few Clouds
Few Clouds
 Viento del calm
Viento: Calma
Temperatura: 13°C
Rocío: 12°C
Humedad: 94%
Barómetro: 1020 hPa
Clouds: Few Clouds
Visibility: 10 km
Cloud details: Few Clouds 762 m
2018/10/16 21:30 LEBB 162130Z 00000KT 9999 FEW025 13/12 Q1020 NOSIG
LESO - San Sebastian/Fu, Spain
Distance from station: N 231km
Actualización: 16/10/2018 23:30
Few Clouds
Few Clouds
 Viento del calm
Viento: Calma
Temperatura: 15°C
Rocío: 14°C
Humedad: 94%
Barómetro: 1020 hPa
Clouds: Few Clouds
Visibility: 10 km
Cloud details: Few Clouds 884 m
2018/10/16 21:30 LESO 162130Z AUTO 00000KT 9999 FEW029/// 15/14 Q1020
 
LEVD - Valladolid(Mil/C, Spain
Distance from station: ONO 239km
Actualización: 16/10/2018 21:30
NOT Current
Despejado
Despejado
 Viento del ONO
Viento: ONO 11 km/h
Temperatura: 10°C
Sensación frio: 8°C
Rocío: 7°C
Humedad: 82%
Barómetro: 1019 hPa
Resumen: Despejado
Visibility: greater than 10 km
2018/10/16 19:30 LEVD 161930Z 30006KT CAVOK 10/07 Q1019
LESA - Salamanca (civ/M, Spain
Distance from station: ONO 349km
Actualización: 16/10/2018 23:30
Despejado
Despejado
 Viento del calm
Viento: Calma
Temperatura: 8°C
Rocío: 7°C
Humedad: 93%
Barómetro: 1020 hPa
Clouds: Despejado
Visibility: 10 km
2018/10/16 21:30 LESA 162130Z AUTO 00000KT 9999 NCD 08/07 Q1020
 
LEXJ - Santander/Paraya, Spain
Distance from station: NNO 247km
Actualización: 16/10/2018 23:30
Mist, Parcialmente nuboso
Mist, Parcialmente nuboso
 Viento del calm
Viento: Calma
Temperatura: 14°C
Rocío: 14°C
Humedad: 100%
Barómetro: 1020 hPa
Resumen: Mist
Clouds: Parcialmente nuboso
Visibility: 4 km
2018/10/16 21:30 LEXJ 162130Z AUTO 00000KT 4400 BR NSC 14/14 Q1020
LEAS - Asturias/Aviles, Spain
Distance from station: NO 214km
Actualización: 16/10/2018 23:30
Despejado
Despejado
 Viento del SSE
Viento: SSE 4 km/h
Temperatura: 13°C
Rocío: 11°C
Humedad: 88%
Barómetro: 1019 hPa
Resumen: Despejado
Visibility: greater than 10 km
2018/10/16 21:30 LEAS 162130Z 15002KT CAVOK 13/11 Q1019 NOSIG
 
LECO - La Coruna/Alvedr, Spain
Distance from station: ONO 222km
Actualización: 16/10/2018 23:30
Muy nuboso
Muy nuboso
 Viento del calm
Viento: Calma
Temperatura: 15°C
Rocío: 14°C
Humedad: 94%
Barómetro: 1020 hPa
Clouds: Muy nuboso
Visibility: 10 km
Cloud details: Muy nuboso 305 m
2018/10/16 21:30 LECO 162130Z 00000KT 9999 BKN010 15/14 Q1020 TEMPO 3000 BR
LEVX - Vigo/Peinador, Spain
Distance from station: O 214km
Actualización: 16/10/2018 23:30
Despejado
Despejado
 Viento del varies
Viento: varies 4 km/h
Temperatura: 14°C
Rocío: 12°C
Humedad: 88%
Barómetro: 1019 hPa
Resumen: Despejado
Visibility: greater than 10 km
2018/10/16 21:30 LEVX 162130Z VRB02KT CAVOK 14/12 Q1019 NOSIG